Redwood City, CA (94065)

1:37 PM PDT on October 24, 2014 (GMT -0700)
Neighborhood 4 | Change Station
CLOSE
Current Station
Personal Weather Station
Location: Foster City, CA
Elevation: 12 ft
Nearby Weather Stations

Elev 12 ft 37.55 °N, 122.26 °W | Updated 6 seconds ago

Partly Cloudy
Partly Cloudy
70.2 °F
Feels Like 74 °F
N
1.0
Wind Variable Wind from SSW
Gusts 2.0 mph

Today
High -- | Low -- °F
--% Chance of Precip.
Yesterday
High -- | Low -- °F
Precip. -- in
7:25 AM 6:19 PM
New Moon, 1% visible
Pressure 29.94 in
Visibility 10.0 miles
Clouds Few 2000 ft
Heat Index 74 °F
Dew Point 60 °F
Humidity 70%
Rainfall 0.00 in
Snow Depth Not available.
UV 4.0 out of 12
Pollen 2.60 out of 12
Ozone Good
PM2.5 Moderate
Flu Activity Sporadic
METAR KSQL 241948Z 28005KT 10SM FEW020 21/14 A2994

More Conditions Fewer Conditions

Pressure 29.94 in
Visibility 10.0 miles
Clouds Few 2000 ft
Heat Index 74 °F
Dew Point 60 °F
Humidity 70%
Rainfall 0.00 in
Snow Depth Not available.
UV 4.0 out of 12
Pollen 2.60 out of 12
Ozone Good
PM2.5 Moderate
Flu Activity Sporadic
METAR KSQL 241948Z 28005KT 10SM FEW020 21/14 A2994

More Conditions Fewer Conditions

10-Day Weather Forecast

Almanac

Astronomy

Oct. 24, 2014 Rise Set
Actual Time 7:25 AM PDT 6:19 PM PDT
Civil Twilight 6:59 AM PDT 6:46 PM PDT
Nautical Twilight 6:28 AM PDT 7:17 PM PDT
Astronomical Twilight 5:58 AM PDT 7:47 PM PDT
Moon 8:09 AM PDT 7:04 PM PDT
Length of Visible Light 11h 47m
Length of Day
10h 53m
Tomorrow will be 2m 14s shorter.
New Moon, 1% of the Moon is Illuminated
Today
New Moon
Oct 30
First Quarter
Nov 6
Full
Nov 14
Last Quarter
Nov 22
New

Today's Extremes

State Highs State Lows

Community

WunderPhotos

Upload Photos

1,764,648 photos uploaded!

Nearby

Air Quality

  Air Quality AQ Index Pollutant
Yesterday Good
OZONE
Yesterday Good
PM2.5
Current Moderate
PM2.5
Current Good
OZONE
Friday Good
OZONE
Saturday Good
OZONE
Sunday Good
OZONE
Monday Good
PM2.5
Tuesday Good
PM2.5
Wednesday Moderate
PM2.5

Snow Depth

Station Depth Elevation
Echo Peak 0 in 7800 ft
Rubicon #2 0 in 7500 ft
Leavitt Meadows 0 in 7200 ft
Summit Meadow 0 in 9122 ft
Virginia Lakes Ridge 0 in 9200 ft

Earthquake Activity

City Distance Mag. Time & Date
No recent earthquake activity has been reported nearby.
Minimum magnitude displayed is 2.5.

Coastal Water Temperatures

Place Temperature
No Stations Reporting

Nearby Weather Stations